Manorville, PA (16238)

1:00 PM EST on November 24, 2014 (GMT -0500)
At Grace Baptist Church | Change Station
CLOSE
Current Station
Personal Weather Station
Location: Kittanning, PA
Elevation: 1084 ft
Nearby Weather Stations
Active Advisory: Wind Advisory Active Notice: Public Information Statement

Elev 1084 ft 40.82 °N, 79.54 °W | Updated 6 seconds ago

Overcast
Overcast
67.9 °F
Feels Like 67.9 °F
N
16.0
Wind Variable Wind from SW
Gusts 25.0 mph

Today
High -- | Low -- °F
--% Chance of Precip.
Yesterday
High -- | Low -- °F
Precip. -- in
7:15 AM 4:53 PM
Waxing Crescent, 6% visible
Pressure 29.47 in
Visibility 10.0 miles
Clouds Mostly Cloudy 7000 ft
Overcast 8000 ft
Dew Point 46 °F
Humidity 45%
Rainfall 0.25 in
Snow Depth Not available.
UV 1 out of 12
Pollen .10 out of 12
Air Quality Not available.
Flu Activity Not available.
METAR KIDI 241755Z AUTO 25020G29KT 10SM BKN070 OVC080 20/06 A2947 RMK A01

More Conditions Fewer Conditions

Pressure 29.47 in
Visibility 10.0 miles
Clouds Mostly Cloudy 7000 ft
Overcast 8000 ft
Dew Point 46 °F
Humidity 45%
Rainfall 0.25 in
Snow Depth Not available.
UV 1 out of 12
Pollen .10 out of 12
Air Quality Not available.
Flu Activity Not available.
METAR KIDI 241755Z AUTO 25020G29KT 10SM BKN070 OVC080 20/06 A2947 RMK A01

More Conditions Fewer Conditions

10-Day Weather Forecast

Almanac

Astronomy

Nov. 24, 2014 Rise Set
Actual Time
Civil Twilight
Nautical Twilight
Astronomical Twilight
Moon
Length of Visible Light
Length of Day
Tomorrow will be .
, % of the Moon is Illuminated

Today's Extremes

State Highs State Lows

Community

WunderPhotos

Upload Photos

1,773,381 photos uploaded!

WunderBlogs® & News

Nearby

Air Quality

  Air Quality AQ Index Pollutant
Not available.

Snow Depth

Station Depth Elevation

Earthquake Activity

City Distance Mag. Time & Date
Minimum magnitude displayed is 2.5.

Coastal Water Temperatures

Place Temperature

Nearby Weather Stations